BOX457 VHHH-VTBS
Flight info
| Callsign | BOX457 |
|---|---|
| Flight time | N/A |
| Altitude | 34000 |
| Route | PECAN V10 SIKOU/K0913S1040 A202 ASSAD/K0915F340 A202 VILAO/N0494F340 A202 RAMEI W42 PAKRI Y13 RUKSA DCT EASTE EASTE1C |
| Aircraft | B77L/H-SDE1E2E3FGHIJ2J3J4J5M1RWXY/LB1D1 |
Departure
| Time | 2026-05-04 07:50 |
|---|---|
| Airport | Hong Kong International Airport (VHHH) |
Arrival
| Time | N/A |
|---|---|
| Airport | Suvarnabhumi Airport (VTBS) |
| Time | Latitude | Longitude | Altitude | Speed | Heading |
|---|---|---|---|---|---|
| 2026-05-04 07:15 | 22.29721 | 113.91745 | 36 ft | 0 kts | 252° |
| 2026-05-04 07:40 | 22.29728 | 113.91767 | 36 ft | 2 kts | 252° |
| 2026-05-04 07:40 | 22.29735 | 113.91791 | 36 ft | 4 kts | 259° |
| 2026-05-04 07:40 | 22.29736 | 113.91819 | 36 ft | 4 kts | 289° |
| 2026-05-04 07:41 | 22.29723 | 113.91836 | 35 ft | 3 kts | 341° |
| 2026-05-04 07:41 | 22.29697 | 113.91846 | 34 ft | 3 kts | 341° |
| 2026-05-04 07:41 | 22.29694 | 113.91847 | 34 ft | 0 kts | 341° |
| 2026-05-04 07:43 | 22.29703 | 113.91844 | 34 ft | 7 kts | 341° |
| 2026-05-04 07:44 | 22.29776 | 113.91816 | 36 ft | 12 kts | 340° |
| 2026-05-04 07:44 | 22.29848 | 113.91778 | 36 ft | 12 kts | 329° |
| 2026-05-04 07:44 | 22.29921 | 113.91740 | 36 ft | 12 kts | 340° |
| 2026-05-04 07:44 | 22.29997 | 113.91710 | 36 ft | 12 kts | 338° |
| 2026-05-04 07:45 | 22.30027 | 113.91637 | 36 ft | 12 kts | 258° |
| 2026-05-04 07:45 | 22.30002 | 113.91553 | 36 ft | 12 kts | 249° |
| 2026-05-04 07:45 | 22.29974 | 113.91470 | 36 ft | 12 kts | 250° |
| 2026-05-04 07:45 | 22.29947 | 113.91387 | 36 ft | 12 kts | 251° |
| 2026-05-04 07:46 | 22.29921 | 113.91304 | 36 ft | 12 kts | 251° |
| 2026-05-04 07:46 | 22.29893 | 113.91215 | 36 ft | 14 kts | 251° |
| 2026-05-04 07:46 | 22.29856 | 113.91102 | 36 ft | 18 kts | 251° |
| 2026-05-04 07:46 | 22.29811 | 113.90963 | 37 ft | 21 kts | 251° |
| 2026-05-04 07:47 | 22.29765 | 113.90817 | 37 ft | 21 kts | 251° |
| 2026-05-04 07:47 | 22.29717 | 113.90671 | 37 ft | 21 kts | 250° |
| 2026-05-04 07:47 | 22.29670 | 113.90526 | 36 ft | 21 kts | 251° |
| 2026-05-04 07:49 | 22.29632 | 113.89863 | 34 ft | 12 kts | 44° |
| 2026-05-04 07:49 | 22.29668 | 113.89949 | 34 ft | 18 kts | 70° |
| 2026-05-04 07:49 | 22.29771 | 113.90268 | 35 ft | 80 kts | 71° |
| 2026-05-04 07:50 | 22.30027 | 113.91064 | 36 ft | 143 kts | 71° |
| 2026-05-04 07:50 | 22.30411 | 113.92250 | 40 ft | 190 kts | 71° |
| 2026-05-04 07:50 | 22.30856 | 113.93586 | 701 ft | 175 kts | 67° |
| 2026-05-04 07:50 | 22.31271 | 113.94782 | 1490 ft | 170 kts | 72° |
| 2026-05-04 07:51 | 22.31672 | 113.96065 | 1824 ft | 192 kts | 72° |
| 2026-05-04 07:51 | 22.32130 | 113.97519 | 2060 ft | 217 kts | 72° |
| 2026-05-04 07:51 | 22.32648 | 113.99163 | 2276 ft | 243 kts | 72° |
| 2026-05-04 07:51 | 22.33207 | 114.00917 | 2923 ft | 252 kts | 72° |
| 2026-05-04 07:52 | 22.33762 | 114.02748 | 3502 ft | 261 kts | 79° |
| 2026-05-04 07:52 | 22.33811 | 114.04722 | 4057 ft | 270 kts | 103° |
| 2026-05-04 07:52 | 22.33075 | 114.06596 | 4721 ft | 275 kts | 128° |
| 2026-05-04 07:52 | 22.31691 | 114.08009 | 5395 ft | 276 kts | 153° |
| 2026-05-04 07:53 | 22.29892 | 114.08668 | 6125 ft | 274 kts | 178° |
| 2026-05-04 07:54 | 22.22854 | 114.08689 | 8794 ft | 279 kts | 185° |